sensor_id;sensor_type;location;lat;lon;timestamp;temperature;humidity
51863;DHT22;37900;52.996;6.278;2023-02-10T00:01:09;14.90;77.10
51863;DHT22;37900;52.996;6.278;2023-02-10T00:03:35;14.90;77.00
51863;DHT22;37900;52.996;6.278;2023-02-10T00:06:02;14.90;77.00
51863;DHT22;37900;52.996;6.278;2023-02-10T00:08:28;14.90;76.90
51863;DHT22;37900;52.996;6.278;2023-02-10T00:11:05;14.80;76.90
51863;DHT22;37900;52.996;6.278;2023-02-10T00:13:32;14.90;76.90
51863;DHT22;37900;52.996;6.278;2023-02-10T00:15:59;14.90;76.90
51863;DHT22;37900;52.996;6.278;2023-02-10T00:18:25;14.80;76.80
51863;DHT22;37900;52.996;6.278;2023-02-10T00:20:51;14.80;76.80
51863;DHT22;37900;52.996;6.278;2023-02-10T00:23:17;14.80;76.80
51863;DHT22;37900;52.996;6.278;2023-02-10T00:25:42;14.80;76.80
51863;DHT22;37900;52.996;6.278;2023-02-10T00:28:08;14.80;76.80
51863;DHT22;37900;52.996;6.278;2023-02-10T00:30:35;14.80;76.80
51863;DHT22;37900;52.996;6.278;2023-02-10T00:33:01;14.80;76.80
51863;DHT22;37900;52.996;6.278;2023-02-10T00:35:27;14.80;76.80
51863;DHT22;37900;52.996;6.278;2023-02-10T00:37:52;14.80;76.80
51863;DHT22;37900;52.996;6.278;2023-02-10T00:40:18;14.80;76.80
51863;DHT22;37900;52.996;6.278;2023-02-10T00:42:44;14.70;76.70
51863;DHT22;37900;52.996;6.278;2023-02-10T00:45:09;14.70;76.70
51863;DHT22;37900;52.996;6.278;2023-02-10T00:47:35;14.70;76.70
51863;DHT22;37900;52.996;6.278;2023-02-10T00:50:01;14.80;76.60
51863;DHT22;37900;52.996;6.278;2023-02-10T00:52:27;14.70;76.60
51863;DHT22;37900;52.996;6.278;2023-02-10T00:54:52;14.80;76.50
51863;DHT22;37900;52.996;6.278;2023-02-10T00:57:18;14.80;76.50
51863;DHT22;37900;52.996;6.278;2023-02-10T00:59:44;14.80;76.40
51863;DHT22;37900;52.996;6.278;2023-02-10T01:02:10;14.80;76.30
51863;DHT22;37900;52.996;6.278;2023-02-10T01:04:36;14.90;76.30
51863;DHT22;37900;52.996;6.278;2023-02-10T01:07:03;14.80;76.30
51863;DHT22;37900;52.996;6.278;2023-02-10T01:09:28;14.80;76.20
51863;DHT22;37900;52.996;6.278;2023-02-10T01:11:54;14.80;76.30
51863;DHT22;37900;52.996;6.278;2023-02-10T01:14:20;14.80;76.20
51863;DHT22;37900;52.996;6.278;2023-02-10T01:16:45;14.80;76.20
51863;DHT22;37900;52.996;6.278;2023-02-10T01:19:11;14.80;76.20
51863;DHT22;37900;52.996;6.278;2023-02-10T01:21:37;14.60;76.10
51863;DHT22;37900;52.996;6.278;2023-02-10T01:24:05;14.70;76.10
51863;DHT22;37900;52.996;6.278;2023-02-10T01:26:31;14.70;76.20
51863;DHT22;37900;52.996;6.278;2023-02-10T01:28:57;14.70;76.20
51863;DHT22;37900;52.996;6.278;2023-02-10T01:31:24;14.70;76.10
51863;DHT22;37900;52.996;6.278;2023-02-10T01:33:54;14.70;76.10
51863;DHT22;37900;52.996;6.278;2023-02-10T01:36:23;14.70;76.10
51863;DHT22;37900;52.996;6.278;2023-02-10T01:38:49;14.70;76.20
51863;DHT22;37900;52.996;6.278;2023-02-10T01:41:18;14.70;76.10
51863;DHT22;37900;52.996;6.278;2023-02-10T01:46:18;14.70;76.00
51863;DHT22;37900;52.996;6.278;2023-02-10T01:48:44;14.70;76.00
51863;DHT22;37900;52.996;6.278;2023-02-10T01:51:10;14.70;75.90
51863;DHT22;37900;52.996;6.278;2023-02-10T01:53:37;14.70;75.90
51863;DHT22;37900;52.996;6.278;2023-02-10T01:56:04;14.70;75.80
51863;DHT22;37900;52.996;6.278;2023-02-10T01:58:32;14.80;75.80
51863;DHT22;37900;52.996;6.278;2023-02-10T02:00:58;14.70;75.80
51863;DHT22;37900;52.996;6.278;2023-02-10T02:03:24;14.70;75.70
51863;DHT22;37900;52.996;6.278;2023-02-10T02:05:51;14.70;75.70
51863;DHT22;37900;52.996;6.278;2023-02-10T02:08:28;14.70;75.70
51863;DHT22;37900;52.996;6.278;2023-02-10T02:33:43;14.70;75.70
51863;DHT22;37900;52.996;6.278;2023-02-10T02:36:15;14.60;75.50
51863;DHT22;37900;52.996;6.278;2023-02-10T02:38:42;14.70;75.60
51863;DHT22;37900;52.996;6.278;2023-02-10T02:41:09;14.70;75.60
51863;DHT22;37900;52.996;6.278;2023-02-10T02:43:36;14.70;75.50
51863;DHT22;37900;52.996;6.278;2023-02-10T02:46:09;14.70;75.50
51863;DHT22;37900;52.996;6.278;2023-02-10T02:51:13;14.70;75.40
51863;DHT22;37900;52.996;6.278;2023-02-10T02:53:59;14.70;75.40
51863;DHT22;37900;52.996;6.278;2023-02-10T02:56:34;14.70;75.40
51863;DHT22;37900;52.996;6.278;2023-02-10T03:01:58;14.70;75.30
51863;DHT22;37900;52.996;6.278;2023-02-10T03:04:30;14.60;75.30
51863;DHT22;37900;52.996;6.278;2023-02-10T03:06:56;14.60;75.30
51863;DHT22;37900;52.996;6.278;2023-02-10T03:09:22;14.60;75.30
51863;DHT22;37900;52.996;6.278;2023-02-10T03:11:48;14.60;75.30
51863;DHT22;37900;52.996;6.278;2023-02-10T03:14:13;14.60;75.30
51863;DHT22;37900;52.996;6.278;2023-02-10T03:16:39;14.60;75.30
51863;DHT22;37900;52.996;6.278;2023-02-10T03:19:05;14.60;75.30
51863;DHT22;37900;52.996;6.278;2023-02-10T03:21:31;14.60;75.30
51863;DHT22;37900;52.996;6.278;2023-02-10T03:23:57;14.60;75.30
51863;DHT22;37900;52.996;6.278;2023-02-10T03:26:22;14.50;75.20
51863;DHT22;37900;52.996;6.278;2023-02-10T03:28:48;14.60;75.20
51863;DHT22;37900;52.996;6.278;2023-02-10T03:31:14;14.60;75.20
51863;DHT22;37900;52.996;6.278;2023-02-10T03:33:40;14.60;75.10
51863;DHT22;37900;52.996;6.278;2023-02-10T03:36:05;14.60;75.10
51863;DHT22;37900;52.996;6.278;2023-02-10T03:38:31;14.70;75.10
51863;DHT22;37900;52.996;6.278;2023-02-10T03:40:57;14.60;75.10
51863;DHT22;37900;52.996;6.278;2023-02-10T03:43:23;14.70;75.10
51863;DHT22;37900;52.996;6.278;2023-02-10T03:45:49;14.60;75.10
51863;DHT22;37900;52.996;6.278;2023-02-10T03:48:15;14.70;75.10
51863;DHT22;37900;52.996;6.278;2023-02-10T03:50:44;14.60;75.10
51863;DHT22;37900;52.996;6.278;2023-02-10T03:53:10;14.60;75.00
51863;DHT22;37900;52.996;6.278;2023-02-10T03:55:36;14.60;75.00
51863;DHT22;37900;52.996;6.278;2023-02-10T03:58:02;14.60;75.10
51863;DHT22;37900;52.996;6.278;2023-02-10T04:00:29;14.60;75.00
51863;DHT22;37900;52.996;6.278;2023-02-10T04:02:56;14.60;75.00
51863;DHT22;37900;52.996;6.278;2023-02-10T04:05:21;14.50;74.90
51863;DHT22;37900;52.996;6.278;2023-02-10T04:07:47;14.60;75.00
51863;DHT22;37900;52.996;6.278;2023-02-10T04:10:13;14.60;75.00
51863;DHT22;37900;52.996;6.278;2023-02-10T04:12:39;14.50;74.90
51863;DHT22;37900;52.996;6.278;2023-02-10T04:15:05;14.50;74.90
51863;DHT22;37900;52.996;6.278;2023-02-10T04:17:31;14.50;74.80
51863;DHT22;37900;52.996;6.278;2023-02-10T04:19:58;14.60;74.90
51863;DHT22;37900;52.996;6.278;2023-02-10T04:22:23;14.60;74.80
51863;DHT22;37900;52.996;6.278;2023-02-10T04:24:49;14.60;74.80
51863;DHT22;37900;52.996;6.278;2023-02-10T04:27:15;14.60;74.80
51863;DHT22;37900;52.996;6.278;2023-02-10T04:29:41;14.60;74.80
51863;DHT22;37900;52.996;6.278;2023-02-10T04:32:07;14.60;74.70
51863;DHT22;37900;52.996;6.278;2023-02-10T04:34:34;14.60;74.70
51863;DHT22;37900;52.996;6.278;2023-02-10T04:37:00;14.60;74.80
51863;DHT22;37900;52.996;6.278;2023-02-10T04:39:26;14.80;74.90
51863;DHT22;37900;52.996;6.278;2023-02-10T04:41:52;14.50;74.70
51863;DHT22;37900;52.996;6.278;2023-02-10T04:44:17;14.50;74.70
51863;DHT22;37900;52.996;6.278;2023-02-10T04:46:43;14.60;74.80
51863;DHT22;37900;52.996;6.278;2023-02-10T04:49:09;14.50;74.70
51863;DHT22;37900;52.996;6.278;2023-02-10T04:51:34;14.50;74.70
51863;DHT22;37900;52.996;6.278;2023-02-10T04:54:00;14.50;74.70
51863;DHT22;37900;52.996;6.278;2023-02-10T04:56:26;14.50;74.70
51863;DHT22;37900;52.996;6.278;2023-02-10T04:58:51;14.50;74.70
51863;DHT22;37900;52.996;6.278;2023-02-10T05:01:17;14.50;74.60
51863;DHT22;37900;52.996;6.278;2023-02-10T05:03:43;14.50;74.60
51863;DHT22;37900;52.996;6.278;2023-02-10T05:06:14;14.50;74.50
51863;DHT22;37900;52.996;6.278;2023-02-10T05:08:40;14.60;74.60
51863;DHT22;37900;52.996;6.278;2023-02-10T05:11:14;14.60;74.60
51863;DHT22;37900;52.996;6.278;2023-02-10T05:13:40;14.60;74.50
51863;DHT22;37900;52.996;6.278;2023-02-10T05:16:10;14.60;74.50
51863;DHT22;37900;52.996;6.278;2023-02-10T05:18:36;14.60;74.50
51863;DHT22;37900;52.996;6.278;2023-02-10T05:21:03;14.60;74.60
51863;DHT22;37900;52.996;6.278;2023-02-10T05:23:29;14.50;74.50
51863;DHT22;37900;52.996;6.278;2023-02-10T05:25:55;14.60;74.50
51863;DHT22;37900;52.996;6.278;2023-02-10T05:28:21;14.50;74.50
51863;DHT22;37900;52.996;6.278;2023-02-10T05:30:47;14.50;74.50
51863;DHT22;37900;52.996;6.278;2023-02-10T05:33:13;14.50;74.50
51863;DHT22;37900;52.996;6.278;2023-02-10T05:35:39;14.50;74.50
51863;DHT22;37900;52.996;6.278;2023-02-10T05:38:05;14.50;74.50
51863;DHT22;37900;52.996;6.278;2023-02-10T05:40:31;14.50;74.50
51863;DHT22;37900;52.996;6.278;2023-02-10T05:42:57;14.50;74.40
51863;DHT22;37900;52.996;6.278;2023-02-10T05:45:23;14.50;74.40
51863;DHT22;37900;52.996;6.278;2023-02-10T05:47:49;14.50;74.40
51863;DHT22;37900;52.996;6.278;2023-02-10T05:50:16;14.50;74.40
51863;DHT22;37900;52.996;6.278;2023-02-10T05:52:42;14.50;74.90
51863;DHT22;37900;52.996;6.278;2023-02-10T05:55:07;14.50;74.30
51863;DHT22;37900;52.996;6.278;2023-02-10T05:57:33;14.50;74.30
51863;DHT22;37900;52.996;6.278;2023-02-10T05:59:59;14.50;74.30
51863;DHT22;37900;52.996;6.278;2023-02-10T06:02:25;14.50;74.30
51863;DHT22;37900;52.996;6.278;2023-02-10T06:04:50;14.50;74.30
51863;DHT22;37900;52.996;6.278;2023-02-10T06:07:16;14.50;74.30
51863;DHT22;37900;52.996;6.278;2023-02-10T06:09:42;14.50;74.30
51863;DHT22;37900;52.996;6.278;2023-02-10T06:12:08;14.50;74.30
51863;DHT22;37900;52.996;6.278;2023-02-10T06:14:34;14.50;74.30
51863;DHT22;37900;52.996;6.278;2023-02-10T06:17:01;14.50;74.30
51863;DHT22;37900;52.996;6.278;2023-02-10T06:19:28;14.50;74.20
51863;DHT22;37900;52.996;6.278;2023-02-10T06:21:54;14.40;74.30
51863;DHT22;37900;52.996;6.278;2023-02-10T06:24:20;14.40;74.30
51863;DHT22;37900;52.996;6.278;2023-02-10T06:26:45;14.40;74.20
51863;DHT22;37900;52.996;6.278;2023-02-10T06:29:11;14.40;74.20
51863;DHT22;37900;52.996;6.278;2023-02-10T06:31:37;14.40;74.20
51863;DHT22;37900;52.996;6.278;2023-02-10T06:34:03;14.50;74.20
51863;DHT22;37900;52.996;6.278;2023-02-10T06:36:29;14.50;74.20
51863;DHT22;37900;52.996;6.278;2023-02-10T06:38:54;14.50;74.20
51863;DHT22;37900;52.996;6.278;2023-02-10T06:41:20;14.50;74.10
51863;DHT22;37900;52.996;6.278;2023-02-10T06:43:45;14.50;74.10
51863;DHT22;37900;52.996;6.278;2023-02-10T06:46:11;14.50;74.10
51863;DHT22;37900;52.996;6.278;2023-02-10T06:48:38;14.50;74.20
51863;DHT22;37900;52.996;6.278;2023-02-10T06:51:04;14.50;74.10
51863;DHT22;37900;52.996;6.278;2023-02-10T06:53:30;14.50;74.10
51863;DHT22;37900;52.996;6.278;2023-02-10T06:55:56;14.50;74.10
51863;DHT22;37900;52.996;6.278;2023-02-10T06:58:22;14.40;74.10
51863;DHT22;37900;52.996;6.278;2023-02-10T07:00:48;14.40;74.10
51863;DHT22;37900;52.996;6.278;2023-02-10T07:03:14;14.40;74.10
51863;DHT22;37900;52.996;6.278;2023-02-10T07:05:40;14.40;74.20
51863;DHT22;37900;52.996;6.278;2023-02-10T07:08:07;14.40;74.10
51863;DHT22;37900;52.996;6.278;2023-02-10T07:10:33;14.40;74.10
51863;DHT22;37900;52.996;6.278;2023-02-10T07:12:58;14.40;74.10
51863;DHT22;37900;52.996;6.278;2023-02-10T07:15:24;14.40;74.00
51863;DHT22;37900;52.996;6.278;2023-02-10T07:17:51;14.40;74.10
51863;DHT22;37900;52.996;6.278;2023-02-10T07:20:20;14.40;74.00
51863;DHT22;37900;52.996;6.278;2023-02-10T07:22:46;14.50;74.00
51863;DHT22;37900;52.996;6.278;2023-02-10T07:25:12;14.50;74.00
51863;DHT22;37900;52.996;6.278;2023-02-10T07:27:38;14.50;73.90
51863;DHT22;37900;52.996;6.278;2023-02-10T07:30:04;14.50;74.00
51863;DHT22;37900;52.996;6.278;2023-02-10T07:32:30;14.50;74.00
51863;DHT22;37900;52.996;6.278;2023-02-10T07:34:56;14.40;74.00
51863;DHT22;37900;52.996;6.278;2023-02-10T07:37:22;14.50;74.10
51863;DHT22;37900;52.996;6.278;2023-02-10T07:39:48;14.40;74.30
51863;DHT22;37900;52.996;6.278;2023-02-10T07:42:13;14.40;74.50
51863;DHT22;37900;52.996;6.278;2023-02-10T07:44:39;14.50;74.70
51863;DHT22;37900;52.996;6.278;2023-02-10T07:47:05;14.50;74.90
51863;DHT22;37900;52.996;6.278;2023-02-10T07:49:31;14.50;75.00
51863;DHT22;37900;52.996;6.278;2023-02-10T07:51:57;14.50;75.10
51863;DHT22;37900;52.996;6.278;2023-02-10T07:54:23;14.60;75.20
51863;DHT22;37900;52.996;6.278;2023-02-10T07:56:49;14.60;75.30
51863;DHT22;37900;52.996;6.278;2023-02-10T07:59:15;14.60;75.30
51863;DHT22;37900;52.996;6.278;2023-02-10T08:01:41;14.70;75.40
51863;DHT22;37900;52.996;6.278;2023-02-10T08:04:12;14.70;75.50
51863;DHT22;37900;52.996;6.278;2023-02-10T08:06:38;14.70;75.50
51863;DHT22;37900;52.996;6.278;2023-02-10T08:09:04;14.70;75.50
51863;DHT22;37900;52.996;6.278;2023-02-10T08:11:30;14.70;75.50
51863;DHT22;37900;52.996;6.278;2023-02-10T08:13:56;14.80;75.60
51863;DHT22;37900;52.996;6.278;2023-02-10T08:16:22;14.80;75.70
51863;DHT22;37900;52.996;6.278;2023-02-10T08:18:47;14.90;75.80
51863;DHT22;37900;52.996;6.278;2023-02-10T08:21:13;14.80;75.90
51863;DHT22;37900;52.996;6.278;2023-02-10T08:23:39;14.90;76.00
51863;DHT22;37900;52.996;6.278;2023-02-10T08:26:07;14.90;76.10
51863;DHT22;37900;52.996;6.278;2023-02-10T08:28:33;15.00;76.20
51863;DHT22;37900;52.996;6.278;2023-02-10T08:31:02;15.00;76.30
51863;DHT22;37900;52.996;6.278;2023-02-10T08:33:28;15.00;76.30
51863;DHT22;37900;52.996;6.278;2023-02-10T08:35:54;15.00;76.30
51863;DHT22;37900;52.996;6.278;2023-02-10T08:38:19;15.10;76.60
51863;DHT22;37900;52.996;6.278;2023-02-10T08:40:50;15.10;76.70
51863;DHT22;37900;52.996;6.278;2023-02-10T08:43:18;15.10;76.80
51863;DHT22;37900;52.996;6.278;2023-02-10T08:45:44;15.10;76.80
51863;DHT22;37900;52.996;6.278;2023-02-10T08:48:09;15.10;76.80
51863;DHT22;37900;52.996;6.278;2023-02-10T08:50:36;15.10;76.80
51863;DHT22;37900;52.996;6.278;2023-02-10T08:53:01;15.10;76.80
51863;DHT22;37900;52.996;6.278;2023-02-10T08:55:27;15.20;76.80
51863;DHT22;37900;52.996;6.278;2023-02-10T08:57:53;15.20;76.80
51863;DHT22;37900;52.996;6.278;2023-02-10T09:00:18;15.20;76.80
51863;DHT22;37900;52.996;6.278;2023-02-10T09:02:44;15.20;76.70
51863;DHT22;37900;52.996;6.278;2023-02-10T09:05:10;15.20;76.70
51863;DHT22;37900;52.996;6.278;2023-02-10T09:07:36;15.20;76.70
51863;DHT22;37900;52.996;6.278;2023-02-10T09:10:01;15.30;76.70
51863;DHT22;37900;52.996;6.278;2023-02-10T09:12:27;15.30;76.70
51863;DHT22;37900;52.996;6.278;2023-02-10T09:14:53;15.20;76.60
51863;DHT22;37900;52.996;6.278;2023-02-10T09:17:18;15.30;76.60
51863;DHT22;37900;52.996;6.278;2023-02-10T09:19:44;15.30;76.60
51863;DHT22;37900;52.996;6.278;2023-02-10T09:22:10;15.30;76.60
51863;DHT22;37900;52.996;6.278;2023-02-10T09:24:36;15.30;76.60
51863;DHT22;37900;52.996;6.278;2023-02-10T09:27:01;15.30;76.50
51863;DHT22;37900;52.996;6.278;2023-02-10T09:29:27;15.30;76.60
51863;DHT22;37900;52.996;6.278;2023-02-10T09:31:53;15.30;76.50
51863;DHT22;37900;52.996;6.278;2023-02-10T09:34:19;15.30;76.50
51863;DHT22;37900;52.996;6.278;2023-02-10T09:36:44;15.30;76.50
51863;DHT22;37900;52.996;6.278;2023-02-10T09:39:10;15.40;76.60
51863;DHT22;37900;52.996;6.278;2023-02-10T09:54:28;15.50;77.20
51863;DHT22;37900;52.996;6.278;2023-02-10T09:57:03;15.50;77.30
51863;DHT22;37900;52.996;6.278;2023-02-10T09:59:33;15.50;77.50
51863;DHT22;37900;52.996;6.278;2023-02-10T10:04:36;15.50;78.10
51863;DHT22;37900;52.996;6.278;2023-02-10T10:07:30;15.60;78.20
51863;DHT22;37900;52.996;6.278;2023-02-10T10:10:27;15.60;78.30
51863;DHT22;37900;52.996;6.278;2023-02-10T10:12:54;15.60;78.70
51863;DHT22;37900;52.996;6.278;2023-02-10T10:15:20;15.60;78.70
51863;DHT22;37900;52.996;6.278;2023-02-10T10:18:14;15.60;78.70
51863;DHT22;37900;52.996;6.278;2023-02-10T10:21:06;15.70;78.80
51863;DHT22;37900;52.996;6.278;2023-02-10T10:24:12;15.70;78.80
51863;DHT22;37900;52.996;6.278;2023-02-10T10:26:54;15.70;78.80
51863;DHT22;37900;52.996;6.278;2023-02-10T10:32:15;15.70;78.70
51863;DHT22;37900;52.996;6.278;2023-02-10T10:34:48;15.70;78.60
51863;DHT22;37900;52.996;6.278;2023-02-10T10:37:19;15.70;78.60
51863;DHT22;37900;52.996;6.278;2023-02-10T10:39:47;15.70;78.60
51863;DHT22;37900;52.996;6.278;2023-02-10T10:42:22;15.80;78.60
51863;DHT22;37900;52.996;6.278;2023-02-10T10:44:49;15.70;78.50
51863;DHT22;37900;52.996;6.278;2023-02-10T10:47:31;15.70;78.50
51863;DHT22;37900;52.996;6.278;2023-02-10T10:50:01;15.80;78.50
51863;DHT22;37900;52.996;6.278;2023-02-10T10:52:34;15.80;78.40
51863;DHT22;37900;52.996;6.278;2023-02-10T10:55:08;15.80;78.40
51863;DHT22;37900;52.996;6.278;2023-02-10T10:57:36;15.70;78.30
51863;DHT22;37900;52.996;6.278;2023-02-10T11:00:23;15.80;78.30
51863;DHT22;37900;52.996;6.278;2023-02-10T11:03:05;15.80;78.30
51863;DHT22;37900;52.996;6.278;2023-02-10T11:05:33;15.80;78.40
51863;DHT22;37900;52.996;6.278;2023-02-10T11:08:01;15.80;78.60
51863;DHT22;37900;52.996;6.278;2023-02-10T11:10:51;15.90;78.90
51863;DHT22;37900;52.996;6.278;2023-02-10T11:13:25;15.90;79.30
51863;DHT22;37900;52.996;6.278;2023-02-10T11:16:03;15.90;79.30
51863;DHT22;37900;52.996;6.278;2023-02-10T11:18:29;15.90;79.60
51863;DHT22;37900;52.996;6.278;2023-02-10T11:21:02;15.90;80.90
51863;DHT22;37900;52.996;6.278;2023-02-10T11:23:28;16.00;80.20
51863;DHT22;37900;52.996;6.278;2023-02-10T11:26:05;16.00;80.50
51863;DHT22;37900;52.996;6.278;2023-02-10T11:28:34;16.00;80.70
51863;DHT22;37900;52.996;6.278;2023-02-10T11:31:12;16.00;80.90
51863;DHT22;37900;52.996;6.278;2023-02-10T11:34:12;16.00;81.10
51863;DHT22;37900;52.996;6.278;2023-02-10T11:36:42;16.00;81.20
51863;DHT22;37900;52.996;6.278;2023-02-10T11:39:16;16.10;81.30
51863;DHT22;37900;52.996;6.278;2023-02-10T11:41:44;16.00;81.50
51863;DHT22;37900;52.996;6.278;2023-02-10T11:44:36;16.10;81.30
51863;DHT22;37900;52.996;6.278;2023-02-10T11:47:05;16.00;81.40
51863;DHT22;37900;52.996;6.278;2023-02-10T11:49:43;16.00;81.40
51863;DHT22;37900;52.996;6.278;2023-02-10T11:52:09;16.00;81.60
51863;DHT22;37900;52.996;6.278;2023-02-10T11:54:36;16.00;81.60
51863;DHT22;37900;52.996;6.278;2023-02-10T12:09:24;15.90;81.90
51863;DHT22;37900;52.996;6.278;2023-02-10T12:12:11;15.90;82.10
51863;DHT22;37900;52.996;6.278;2023-02-10T12:15:01;15.80;82.10
51863;DHT22;37900;52.996;6.278;2023-02-10T12:17:36;15.90;82.40
51863;DHT22;37900;52.996;6.278;2023-02-10T12:20:39;15.90;82.50
51863;DHT22;37900;52.996;6.278;2023-02-10T12:23:26;15.90;82.70
51863;DHT22;37900;52.996;6.278;2023-02-10T12:26:24;15.90;82.50
51863;DHT22;37900;52.996;6.278;2023-02-10T12:31:54;15.90;82.30
51863;DHT22;37900;52.996;6.278;2023-02-10T12:50:28;15.80;81.90
51863;DHT22;37900;52.996;6.278;2023-02-10T12:53:00;15.70;81.80
51863;DHT22;37900;52.996;6.278;2023-02-10T12:55:37;15.70;81.80
51863;DHT22;37900;52.996;6.278;2023-02-10T12:58:21;15.70;81.80
51863;DHT22;37900;52.996;6.278;2023-02-10T13:01:08;15.80;81.90
51863;DHT22;37900;52.996;6.278;2023-02-10T13:03:39;15.70;81.80
51863;DHT22;37900;52.996;6.278;2023-02-10T13:06:46;15.80;81.90
51863;DHT22;37900;52.996;6.278;2023-02-10T13:12:29;15.80;81.80
51863;DHT22;37900;52.996;6.278;2023-02-10T13:15:05;15.90;81.70
51863;DHT22;37900;52.996;6.278;2023-02-10T13:17:44;15.90;81.60
51863;DHT22;37900;52.996;6.278;2023-02-10T13:20:50;15.80;81.50
51863;DHT22;37900;52.996;6.278;2023-02-10T13:23:47;15.80;81.50
51863;DHT22;37900;52.996;6.278;2023-02-10T13:29:40;15.80;81.40
51863;DHT22;37900;52.996;6.278;2023-02-10T13:32:26;15.80;81.40
51863;DHT22;37900;52.996;6.278;2023-02-10T13:34:57;15.80;81.50
51863;DHT22;37900;52.996;6.278;2023-02-10T13:39:59;15.80;81.40
51863;DHT22;37900;52.996;6.278;2023-02-10T13:42:37;15.70;81.40
51863;DHT22;37900;52.996;6.278;2023-02-10T13:52:54;15.90;81.70
51863;DHT22;37900;52.996;6.278;2023-02-10T13:58:24;15.90;82.20
51863;DHT22;37900;52.996;6.278;2023-02-10T14:00:53;15.90;81.60
51863;DHT22;37900;52.996;6.278;2023-02-10T14:03:26;15.90;81.50
51863;DHT22;37900;52.996;6.278;2023-02-10T14:06:05;15.90;81.50
51863;DHT22;37900;52.996;6.278;2023-02-10T14:08:37;15.90;81.50
51863;DHT22;37900;52.996;6.278;2023-02-10T14:14:00;15.90;81.50
51863;DHT22;37900;52.996;6.278;2023-02-10T14:16:31;15.80;81.50
51863;DHT22;37900;52.996;6.278;2023-02-10T14:21:56;15.90;81.80
51863;DHT22;37900;52.996;6.278;2023-02-10T14:24:26;15.80;81.70
51863;DHT22;37900;52.996;6.278;2023-02-10T14:26:53;15.80;81.70
51863;DHT22;37900;52.996;6.278;2023-02-10T14:29:21;15.80;81.80
51863;DHT22;37900;52.996;6.278;2023-02-10T14:31:55;15.80;82.00
51863;DHT22;37900;52.996;6.278;2023-02-10T14:36:58;15.90;82.10
51863;DHT22;37900;52.996;6.278;2023-02-10T14:39:26;15.90;82.10
51863;DHT22;37900;52.996;6.278;2023-02-10T14:41:53;15.90;82.10
51863;DHT22;37900;52.996;6.278;2023-02-10T14:44:34;15.90;82.00
51863;DHT22;37900;52.996;6.278;2023-02-10T14:47:01;16.00;82.00
51863;DHT22;37900;52.996;6.278;2023-02-10T14:49:27;16.00;81.90
51863;DHT22;37900;52.996;6.278;2023-02-10T14:51:53;16.00;81.90
51863;DHT22;37900;52.996;6.278;2023-02-10T14:54:22;15.90;81.80
51863;DHT22;37900;52.996;6.278;2023-02-10T14:59:30;15.90;81.80
51863;DHT22;37900;52.996;6.278;2023-02-10T15:02:07;15.90;81.70
51863;DHT22;37900;52.996;6.278;2023-02-10T15:04:36;15.90;81.70
51863;DHT22;37900;52.996;6.278;2023-02-10T15:07:03;15.80;81.60
51863;DHT22;37900;52.996;6.278;2023-02-10T15:09:33;15.80;81.70
51863;DHT22;37900;52.996;6.278;2023-02-10T15:12:08;15.80;81.60
51863;DHT22;37900;52.996;6.278;2023-02-10T15:15:05;15.80;81.70
51863;DHT22;37900;52.996;6.278;2023-02-10T15:17:44;15.80;81.70
51863;DHT22;37900;52.996;6.278;2023-02-10T15:22:44;15.90;81.70
51863;DHT22;37900;52.996;6.278;2023-02-10T15:28:20;15.90;81.60
51863;DHT22;37900;52.996;6.278;2023-02-10T15:30:55;16.00;81.50
51863;DHT22;37900;52.996;6.278;2023-02-10T15:33:50;15.90;81.40
51863;DHT22;37900;52.996;6.278;2023-02-10T15:41:44;15.90;81.40
51863;DHT22;37900;52.996;6.278;2023-02-10T15:46:53;15.90;81.40
51863;DHT22;37900;52.996;6.278;2023-02-10T15:49:21;15.90;81.40
51863;DHT22;37900;52.996;6.278;2023-02-10T15:51:52;15.80;81.40
51863;DHT22;37900;52.996;6.278;2023-02-10T15:54:23;15.90;81.40
51863;DHT22;37900;52.996;6.278;2023-02-10T15:56:58;15.80;81.40
51863;DHT22;37900;52.996;6.278;2023-02-10T15:59:24;15.80;81.40
51863;DHT22;37900;52.996;6.278;2023-02-10T16:01:57;15.80;81.40
51863;DHT22;37900;52.996;6.278;2023-02-10T16:04:24;15.90;81.40
51863;DHT22;37900;52.996;6.278;2023-02-10T16:06:49;15.90;81.30
51863;DHT22;37900;52.996;6.278;2023-02-10T16:09:15;15.90;81.30
51863;DHT22;37900;52.996;6.278;2023-02-10T16:11:41;15.90;81.20
51863;DHT22;37900;52.996;6.278;2023-02-10T16:14:07;16.00;81.30
51863;DHT22;37900;52.996;6.278;2023-02-10T16:16:33;16.00;81.20
51863;DHT22;37900;52.996;6.278;2023-02-10T16:19:01;15.90;81.10
51863;DHT22;37900;52.996;6.278;2023-02-10T16:21:27;15.90;81.10
51863;DHT22;37900;52.996;6.278;2023-02-10T16:23:53;15.90;81.00
51863;DHT22;37900;52.996;6.278;2023-02-10T16:26:22;15.90;81.00
51863;DHT22;37900;52.996;6.278;2023-02-10T16:28:49;15.90;81.00
51863;DHT22;37900;52.996;6.278;2023-02-10T16:31:14;15.90;81.70
51863;DHT22;37900;52.996;6.278;2023-02-10T16:33:40;15.80;81.20
51863;DHT22;37900;52.996;6.278;2023-02-10T16:36:13;15.80;81.40
51863;DHT22;37900;52.996;6.278;2023-02-10T16:38:40;15.80;81.50
51863;DHT22;37900;52.996;6.278;2023-02-10T16:41:06;15.90;81.70
51863;DHT22;37900;52.996;6.278;2023-02-10T16:43:32;15.90;81.70
51863;DHT22;37900;52.996;6.278;2023-02-10T16:45:58;15.80;81.90
51863;DHT22;37900;52.996;6.278;2023-02-10T16:48:23;15.90;82.20
51863;DHT22;37900;52.996;6.278;2023-02-10T16:50:49;15.90;83.00
51863;DHT22;37900;52.996;6.278;2023-02-10T16:53:15;15.90;82.60
51863;DHT22;37900;52.996;6.278;2023-02-10T16:55:40;15.90;82.70
51863;DHT22;37900;52.996;6.278;2023-02-10T16:58:15;16.00;82.80
51863;DHT22;37900;52.996;6.278;2023-02-10T17:00:41;16.00;82.70
51863;DHT22;37900;52.996;6.278;2023-02-10T17:03:08;16.00;82.80
51863;DHT22;37900;52.996;6.278;2023-02-10T17:05:33;16.00;82.80
51863;DHT22;37900;52.996;6.278;2023-02-10T17:08:02;16.00;82.80
51863;DHT22;37900;52.996;6.278;2023-02-10T17:10:28;16.00;82.70
51863;DHT22;37900;52.996;6.278;2023-02-10T17:12:55;15.90;82.50
51863;DHT22;37900;52.996;6.278;2023-02-10T17:15:21;15.90;82.40
51863;DHT22;37900;52.996;6.278;2023-02-10T17:17:47;16.00;82.40
51863;DHT22;37900;52.996;6.278;2023-02-10T17:20:25;16.00;82.40
51863;DHT22;37900;52.996;6.278;2023-02-10T17:22:51;15.90;82.40
51863;DHT22;37900;52.996;6.278;2023-02-10T17:25:19;15.90;82.50
51863;DHT22;37900;52.996;6.278;2023-02-10T17:27:44;15.90;83.00
51863;DHT22;37900;52.996;6.278;2023-02-10T17:30:16;16.00;83.50
51863;DHT22;37900;52.996;6.278;2023-02-10T17:32:42;16.00;83.50
51863;DHT22;37900;52.996;6.278;2023-02-10T17:35:13;16.00;83.50
51863;DHT22;37900;52.996;6.278;2023-02-10T17:37:40;16.10;83.60
51863;DHT22;37900;52.996;6.278;2023-02-10T17:40:12;16.10;83.50
51863;DHT22;37900;52.996;6.278;2023-02-10T17:42:51;16.10;83.40
51863;DHT22;37900;52.996;6.278;2023-02-10T17:45:17;16.10;83.30
51863;DHT22;37900;52.996;6.278;2023-02-10T17:47:44;16.10;83.20